sensor_id;sensor_type;location;lat;lon;timestamp;temperature;humidity
28175;SHT30;59417;44.788;10.334;2022-09-09T00:04:12;23.54;70.91
28175;SHT30;59417;44.788;10.334;2022-09-09T00:09:40;23.43;70.73
28175;SHT30;59417;44.788;10.334;2022-09-09T00:15:31;23.50;70.97
28175;SHT30;59417;44.788;10.334;2022-09-09T00:21:35;23.49;71.41
28175;SHT30;59417;44.788;10.334;2022-09-09T00:24:10;23.41;71.64
28175;SHT30;59417;44.788;10.334;2022-09-09T00:26:45;23.46;71.46
28175;SHT30;59417;44.788;10.334;2022-09-09T00:31:38;23.40;71.70
28175;SHT30;59417;44.788;10.334;2022-09-09T00:36:37;23.26;72.40
28175;SHT30;59417;44.788;10.334;2022-09-09T00:39:04;23.12;72.55
28175;SHT30;59417;44.788;10.334;2022-09-09T00:41:47;23.16;72.24
28175;SHT30;59417;44.788;10.334;2022-09-09T00:55:24;23.12;71.62
28175;SHT30;59417;44.788;10.334;2022-09-09T00:57:53;23.13;71.41
28175;SHT30;59417;44.788;10.334;2022-09-09T01:00:43;23.12;71.53
28175;SHT30;59417;44.788;10.334;2022-09-09T01:10:54;22.92;72.34
28175;SHT30;59417;44.788;10.334;2022-09-09T01:13:28;22.88;72.24
28175;SHT30;59417;44.788;10.334;2022-09-09T01:16:08;22.83;72.14
28175;SHT30;59417;44.788;10.334;2022-09-09T01:18:48;22.92;71.54
28175;SHT30;59417;44.788;10.334;2022-09-09T01:27:22;22.90;70.17
28175;SHT30;59417;44.788;10.334;2022-09-09T01:29:49;22.90;69.35
28175;SHT30;59417;44.788;10.334;2022-09-09T01:32:45;22.93;67.35
28175;SHT30;59417;44.788;10.334;2022-09-09T01:35:22;22.93;65.98
28175;SHT30;59417;44.788;10.334;2022-09-09T01:37:52;22.78;66.54
28175;SHT30;59417;44.788;10.334;2022-09-09T01:40:18;22.71;65.57
28175;SHT30;59417;44.788;10.334;2022-09-09T01:42:46;22.76;62.44
28175;SHT30;59417;44.788;10.334;2022-09-09T01:45:12;22.61;64.18
28175;SHT30;59417;44.788;10.334;2022-09-09T01:47:38;22.64;63.80
28175;SHT30;59417;44.788;10.334;2022-09-09T01:50:17;22.71;63.47
28175;SHT30;59417;44.788;10.334;2022-09-09T01:52:45;22.75;63.24
28175;SHT30;59417;44.788;10.334;2022-09-09T01:55:14;22.62;64.59
28175;SHT30;59417;44.788;10.334;2022-09-09T02:00:44;22.10;66.53
28175;SHT30;59417;44.788;10.334;2022-09-09T02:03:38;22.22;65.71
28175;SHT30;59417;44.788;10.334;2022-09-09T02:06:30;22.35;65.23
28175;SHT30;59417;44.788;10.334;2022-09-09T02:09:07;22.45;64.86
28175;SHT30;59417;44.788;10.334;2022-09-09T02:11:36;22.49;64.28
28175;SHT30;59417;44.788;10.334;2022-09-09T02:14:12;22.45;63.91
28175;SHT30;59417;44.788;10.334;2022-09-09T02:16:49;22.38;63.62
28175;SHT30;59417;44.788;10.334;2022-09-09T02:19:21;22.35;63.51
28175;SHT30;59417;44.788;10.334;2022-09-09T02:22:03;22.25;63.85
28175;SHT30;59417;44.788;10.334;2022-09-09T02:24:32;22.18;63.78
28175;SHT30;59417;44.788;10.334;2022-09-09T02:27:10;22.16;63.26
28175;SHT30;59417;44.788;10.334;2022-09-09T02:29:42;22.06;62.62
28175;SHT30;59417;44.788;10.334;2022-09-09T02:32:12;22.03;62.02
28175;SHT30;59417;44.788;10.334;2022-09-09T02:34:43;21.93;62.00
28175;SHT30;59417;44.788;10.334;2022-09-09T02:37:11;22.10;61.45
28175;SHT30;59417;44.788;10.334;2022-09-09T02:39:40;22.00;61.49
28175;SHT30;59417;44.788;10.334;2022-09-09T02:42:08;21.92;62.11
28175;SHT30;59417;44.788;10.334;2022-09-09T02:44:36;21.78;61.78
28175;SHT30;59417;44.788;10.334;2022-09-09T02:47:25;21.71;61.43
28175;SHT30;59417;44.788;10.334;2022-09-09T02:50:19;21.78;61.37
28175;SHT30;59417;44.788;10.334;2022-09-09T02:53:10;21.83;61.16
28175;SHT30;59417;44.788;10.334;2022-09-09T02:55:55;21.86;62.17
28175;SHT30;59417;44.788;10.334;2022-09-09T02:58:24;21.66;62.82
28175;SHT30;59417;44.788;10.334;2022-09-09T03:00:57;21.53;62.82
28175;SHT30;59417;44.788;10.334;2022-09-09T03:03:25;21.43;62.98
28175;SHT30;59417;44.788;10.334;2022-09-09T03:05:51;21.38;62.51
28175;SHT30;59417;44.788;10.334;2022-09-09T03:08:17;21.45;62.19
28175;SHT30;59417;44.788;10.334;2022-09-09T03:10:46;21.60;61.55
28175;SHT30;59417;44.788;10.334;2022-09-09T03:13:14;21.62;62.17
28175;SHT30;59417;44.788;10.334;2022-09-09T03:15:41;21.65;61.17
28175;SHT30;59417;44.788;10.334;2022-09-09T03:18:10;21.57;61.62
28175;SHT30;59417;44.788;10.334;2022-09-09T03:20:35;21.49;61.95
28175;SHT30;59417;44.788;10.334;2022-09-09T03:23:01;21.41;62.28
28175;SHT30;59417;44.788;10.334;2022-09-09T03:25:28;21.42;61.20
28175;SHT30;59417;44.788;10.334;2022-09-09T03:27:54;21.38;61.85
28175;SHT30;59417;44.788;10.334;2022-09-09T03:30:26;21.38;62.22
28175;SHT30;59417;44.788;10.334;2022-09-09T03:32:54;21.36;62.35
28175;SHT30;59417;44.788;10.334;2022-09-09T03:35:22;21.35;62.19
28175;SHT30;59417;44.788;10.334;2022-09-09T03:37:48;21.22;62.02
28175;SHT30;59417;44.788;10.334;2022-09-09T03:40:14;21.12;61.20
28175;SHT30;59417;44.788;10.334;2022-09-09T03:42:44;20.98;62.32
28175;SHT30;59417;44.788;10.334;2022-09-09T03:45:11;20.98;62.98
28175;SHT30;59417;44.788;10.334;2022-09-09T03:47:39;21.05;62.77
28175;SHT30;59417;44.788;10.334;2022-09-09T03:50:07;21.16;61.74
28175;SHT30;59417;44.788;10.334;2022-09-09T03:52:40;21.25;61.00
28175;SHT30;59417;44.788;10.334;2022-09-09T03:55:11;21.02;62.04
28175;SHT30;59417;44.788;10.334;2022-09-09T03:57:37;21.05;62.19
28175;SHT30;59417;44.788;10.334;2022-09-09T04:00:07;21.23;61.35
28175;SHT30;59417;44.788;10.334;2022-09-09T04:02:42;21.33;61.18
28175;SHT30;59417;44.788;10.334;2022-09-09T04:05:10;21.19;61.32
28175;SHT30;59417;44.788;10.334;2022-09-09T04:07:39;21.19;61.28
28175;SHT30;59417;44.788;10.334;2022-09-09T04:10:05;21.18;61.23
28175;SHT30;59417;44.788;10.334;2022-09-09T04:12:31;21.05;61.25
28175;SHT30;59417;44.788;10.334;2022-09-09T04:14:57;21.14;61.10
28175;SHT30;59417;44.788;10.334;2022-09-09T04:17:23;21.16;60.96
28175;SHT30;59417;44.788;10.334;2022-09-09T04:19:49;21.19;60.68
28175;SHT30;59417;44.788;10.334;2022-09-09T04:22:15;21.33;60.58
28175;SHT30;59417;44.788;10.334;2022-09-09T04:24:41;21.35;60.59
28175;SHT30;59417;44.788;10.334;2022-09-09T04:27:07;21.33;60.23
28175;SHT30;59417;44.788;10.334;2022-09-09T04:29:34;21.25;60.65
28175;SHT30;59417;44.788;10.334;2022-09-09T04:32:00;21.28;60.34
28175;SHT30;59417;44.788;10.334;2022-09-09T04:34:26;21.31;60.62
28175;SHT30;59417;44.788;10.334;2022-09-09T04:36:53;21.32;60.66
28175;SHT30;59417;44.788;10.334;2022-09-09T04:39:20;21.31;60.56
28175;SHT30;59417;44.788;10.334;2022-09-09T04:41:47;21.23;60.89
28175;SHT30;59417;44.788;10.334;2022-09-09T04:44:14;21.18;61.66
28175;SHT30;59417;44.788;10.334;2022-09-09T04:46:39;21.02;61.47
28175;SHT30;59417;44.788;10.334;2022-09-09T04:49:06;21.04;61.52
28175;SHT30;59417;44.788;10.334;2022-09-09T04:51:33;21.01;61.38
28175;SHT30;59417;44.788;10.334;2022-09-09T04:53:58;20.95;61.48
28175;SHT30;59417;44.788;10.334;2022-09-09T04:56:24;20.92;61.63
28175;SHT30;59417;44.788;10.334;2022-09-09T04:58:56;20.75;61.95
28175;SHT30;59417;44.788;10.334;2022-09-09T05:01:30;20.88;61.29
28175;SHT30;59417;44.788;10.334;2022-09-09T05:04:02;20.84;61.66
28175;SHT30;59417;44.788;10.334;2022-09-09T05:06:28;20.74;62.40
28175;SHT30;59417;44.788;10.334;2022-09-09T05:08:58;20.61;61.83
28175;SHT30;59417;44.788;10.334;2022-09-09T05:11:29;20.51;62.84
28175;SHT30;59417;44.788;10.334;2022-09-09T05:14:09;20.51;62.03
28175;SHT30;59417;44.788;10.334;2022-09-09T05:16:36;20.61;62.25
28175;SHT30;59417;44.788;10.334;2022-09-09T05:19:03;20.71;61.78
28175;SHT30;59417;44.788;10.334;2022-09-09T05:21:40;20.92;61.51
28175;SHT30;59417;44.788;10.334;2022-09-09T05:24:07;20.96;61.58
28175;SHT30;59417;44.788;10.334;2022-09-09T05:26:33;20.94;61.44
28175;SHT30;59417;44.788;10.334;2022-09-09T05:29:00;20.87;61.53
28175;SHT30;59417;44.788;10.334;2022-09-09T05:31:29;20.81;61.70
28175;SHT30;59417;44.788;10.334;2022-09-09T05:33:55;20.99;60.90
28175;SHT30;59417;44.788;10.334;2022-09-09T05:36:22;21.12;60.79
28175;SHT30;59417;44.788;10.334;2022-09-09T05:38:52;21.12;61.68
28175;SHT30;59417;44.788;10.334;2022-09-09T05:41:21;20.92;62.01
28175;SHT30;59417;44.788;10.334;2022-09-09T05:43:49;20.82;61.38
28175;SHT30;59417;44.788;10.334;2022-09-09T05:46:20;20.85;61.45
28175;SHT30;59417;44.788;10.334;2022-09-09T05:48:48;20.77;61.80
28175;SHT30;59417;44.788;10.334;2022-09-09T05:51:18;20.74;62.54
28175;SHT30;59417;44.788;10.334;2022-09-09T05:53:47;20.84;61.72
28175;SHT30;59417;44.788;10.334;2022-09-09T05:56:15;20.95;60.79
28175;SHT30;59417;44.788;10.334;2022-09-09T05:58:42;21.02;62.47
28175;SHT30;59417;44.788;10.334;2022-09-09T06:01:15;21.11;62.53
28175;SHT30;59417;44.788;10.334;2022-09-09T06:03:43;21.09;61.73
28175;SHT30;59417;44.788;10.334;2022-09-09T06:06:11;21.09;61.71
28175;SHT30;59417;44.788;10.334;2022-09-09T06:08:40;21.16;62.54
28175;SHT30;59417;44.788;10.334;2022-09-09T06:11:09;21.25;63.00
28175;SHT30;59417;44.788;10.334;2022-09-09T06:13:35;21.28;63.07
28175;SHT30;59417;44.788;10.334;2022-09-09T06:16:05;21.41;63.25
28175;SHT30;59417;44.788;10.334;2022-09-09T06:18:33;21.47;61.61
28175;SHT30;59417;44.788;10.334;2022-09-09T06:21:03;21.49;62.19
28175;SHT30;59417;44.788;10.334;2022-09-09T06:23:30;21.43;62.84
28175;SHT30;59417;44.788;10.334;2022-09-09T06:26:21;21.45;62.48
28175;SHT30;59417;44.788;10.334;2022-09-09T06:28:50;21.57;62.29
28175;SHT30;59417;44.788;10.334;2022-09-09T06:31:20;21.74;61.81
28175;SHT30;59417;44.788;10.334;2022-09-09T06:33:49;21.81;61.11
28175;SHT30;59417;44.788;10.334;2022-09-09T06:36:20;21.92;61.49
28175;SHT30;59417;44.788;10.334;2022-09-09T06:38:46;21.94;61.68
28175;SHT30;59417;44.788;10.334;2022-09-09T06:41:16;22.07;61.72
28175;SHT30;59417;44.788;10.334;2022-09-09T06:43:45;22.11;61.85
28175;SHT30;59417;44.788;10.334;2022-09-09T06:46:19;21.97;62.90
28175;SHT30;59417;44.788;10.334;2022-09-09T06:48:48;21.93;62.58
28175;SHT30;59417;44.788;10.334;2022-09-09T06:51:20;22.01;62.20
28175;SHT30;59417;44.788;10.334;2022-09-09T06:53:57;22.20;61.30
28175;SHT30;59417;44.788;10.334;2022-09-09T06:56:28;22.32;61.65
28175;SHT30;59417;44.788;10.334;2022-09-09T06:58:58;22.29;61.64
28175;SHT30;59417;44.788;10.334;2022-09-09T07:01:31;22.45;64.02
28175;SHT30;59417;44.788;10.334;2022-09-09T07:04:00;22.41;67.61
28175;SHT30;59417;44.788;10.334;2022-09-09T07:06:28;22.45;67.41
28175;SHT30;59417;44.788;10.334;2022-09-09T07:08:58;22.64;67.49
28175;SHT30;59417;44.788;10.334;2022-09-09T07:11:28;22.69;67.75
28175;SHT30;59417;44.788;10.334;2022-09-09T07:13:56;22.79;68.59
28175;SHT30;59417;44.788;10.334;2022-09-09T07:16:23;22.96;68.99
28175;SHT30;59417;44.788;10.334;2022-09-09T07:18:54;23.18;68.35
28175;SHT30;59417;44.788;10.334;2022-09-09T07:21:25;23.09;68.23
28175;SHT30;59417;44.788;10.334;2022-09-09T07:23:53;23.15;68.11
28175;SHT30;59417;44.788;10.334;2022-09-09T07:26:21;23.26;67.55
28175;SHT30;59417;44.788;10.334;2022-09-09T07:28:47;23.46;66.98
28175;SHT30;59417;44.788;10.334;2022-09-09T07:33:43;23.63;68.26
28175;SHT30;59417;44.788;10.334;2022-09-09T07:36:14;23.60;69.05
28175;SHT30;59417;44.788;10.334;2022-09-09T07:38:41;23.68;69.79
28175;SHT30;59417;44.788;10.334;2022-09-09T07:41:11;23.71;70.55
28175;SHT30;59417;44.788;10.334;2022-09-09T07:43:42;23.88;70.29
28175;SHT30;59417;44.788;10.334;2022-09-09T07:46:09;24.04;70.95
28175;SHT30;59417;44.788;10.334;2022-09-09T07:48:35;24.09;70.33
28175;SHT30;59417;44.788;10.334;2022-09-09T07:51:11;24.01;71.15
28175;SHT30;59417;44.788;10.334;2022-09-09T07:53:38;24.02;71.14
28175;SHT30;59417;44.788;10.334;2022-09-09T07:56:09;24.00;71.66
28175;SHT30;59417;44.788;10.334;2022-09-09T07:58:37;24.04;71.85
28175;SHT30;59417;44.788;10.334;2022-09-09T08:01:15;24.21;71.90
28175;SHT30;59417;44.788;10.334;2022-09-09T08:03:45;24.15;72.28
28175;SHT30;59417;44.788;10.334;2022-09-09T08:06:11;24.32;72.36
28175;SHT30;59417;44.788;10.334;2022-09-09T08:08:38;24.35;71.69
28175;SHT30;59417;44.788;10.334;2022-09-09T08:11:10;24.35;72.21
28175;SHT30;59417;44.788;10.334;2022-09-09T08:13:38;24.45;72.22
28175;SHT30;59417;44.788;10.334;2022-09-09T08:16:16;24.48;71.65
28175;SHT30;59417;44.788;10.334;2022-09-09T08:18:42;24.43;71.58
28175;SHT30;59417;44.788;10.334;2022-09-09T08:21:13;24.48;71.92
28175;SHT30;59417;44.788;10.334;2022-09-09T08:23:44;24.51;72.36
28175;SHT30;59417;44.788;10.334;2022-09-09T08:26:12;24.59;72.48
28175;SHT30;59417;44.788;10.334;2022-09-09T08:28:39;24.56;72.71
28175;SHT30;59417;44.788;10.334;2022-09-09T08:31:18;24.62;72.37
28175;SHT30;59417;44.788;10.334;2022-09-09T08:33:44;24.59;72.20
28175;SHT30;59417;44.788;10.334;2022-09-09T08:36:15;24.56;72.25
28175;SHT30;59417;44.788;10.334;2022-09-09T08:38:47;24.48;72.92
28175;SHT30;59417;44.788;10.334;2022-09-09T08:47:05;24.77;72.70
28175;SHT30;59417;44.788;10.334;2022-09-09T08:52:32;25.02;71.73
28175;SHT30;59417;44.788;10.334;2022-09-09T08:58:18;25.13;71.75
28175;SHT30;59417;44.788;10.334;2022-09-09T09:11:38;25.44;71.25
28175;SHT30;59417;44.788;10.334;2022-09-09T09:14:22;25.51;70.89
28175;SHT30;59417;44.788;10.334;2022-09-09T09:17:12;25.64;70.89
28175;SHT30;59417;44.788;10.334;2022-09-09T09:19:41;25.82;69.99
28175;SHT30;59417;44.788;10.334;2022-09-09T09:22:24;25.78;69.39
28175;SHT30;59417;44.788;10.334;2022-09-09T09:25:11;25.95;69.32
28175;SHT30;59417;44.788;10.334;2022-09-09T09:30:18;26.12;68.84
28175;SHT30;59417;44.788;10.334;2022-09-09T09:32:53;26.20;68.23
28175;SHT30;59417;44.788;10.334;2022-09-09T09:35:19;25.90;69.02
28175;SHT30;59417;44.788;10.334;2022-09-09T09:37:45;26.00;69.51
28175;SHT30;59417;44.788;10.334;2022-09-09T09:40:15;26.05;68.40
28175;SHT30;59417;44.788;10.334;2022-09-09T09:43:16;25.92;68.77
28175;SHT30;59417;44.788;10.334;2022-09-09T09:45:44;25.92;69.22
28175;SHT30;59417;44.788;10.334;2022-09-09T09:48:13;26.15;67.83
28175;SHT30;59417;44.788;10.334;2022-09-09T09:53:31;26.54;67.83
28175;SHT30;59417;44.788;10.334;2022-09-09T09:56:03;26.59;67.54
28175;SHT30;59417;44.788;10.334;2022-09-09T09:58:33;26.73;67.10
28175;SHT30;59417;44.788;10.334;2022-09-09T10:01:01;26.59;65.78
28175;SHT30;59417;44.788;10.334;2022-09-09T10:03:30;26.51;67.88
28175;SHT30;59417;44.788;10.334;2022-09-09T10:05:58;26.02;66.69
28175;SHT30;59417;44.788;10.334;2022-09-09T10:08:25;25.59;68.66
28175;SHT30;59417;44.788;10.334;2022-09-09T10:14:12;25.74;68.56
28175;SHT30;59417;44.788;10.334;2022-09-09T10:19:30;26.15;68.59
28175;SHT30;59417;44.788;10.334;2022-09-09T10:35:30;26.50;68.57
28175;SHT30;59417;44.788;10.334;2022-09-09T10:41:00;26.16;69.97
28175;SHT30;59417;44.788;10.334;2022-09-09T10:43:35;25.89;69.92
28175;SHT30;59417;44.788;10.334;2022-09-09T10:49:05;25.75;70.77
28175;SHT30;59417;44.788;10.334;2022-09-09T10:59:50;26.26;67.96
28175;SHT30;59417;44.788;10.334;2022-09-09T11:02:28;26.59;66.10
28175;SHT30;59417;44.788;10.334;2022-09-09T11:04:55;26.74;65.31
28175;SHT30;59417;44.788;10.334;2022-09-09T11:07:40;26.90;63.27
28175;SHT30;59417;44.788;10.334;2022-09-09T11:10:38;27.11;64.33
28175;SHT30;59417;44.788;10.334;2022-09-09T11:13:23;26.92;63.76
28175;SHT30;59417;44.788;10.334;2022-09-09T11:18:43;27.19;63.49
28175;SHT30;59417;44.788;10.334;2022-09-09T11:21:20;27.41;63.96
28175;SHT30;59417;44.788;10.334;2022-09-09T11:24:01;27.63;60.00
28175;SHT30;59417;44.788;10.334;2022-09-09T11:26:58;27.67;60.09
28175;SHT30;59417;44.788;10.334;2022-09-09T11:38:27;27.59;60.25
28175;SHT30;59417;44.788;10.334;2022-09-09T11:40:55;27.59;60.55
28175;SHT30;59417;44.788;10.334;2022-09-09T11:43:31;27.32;60.92
28175;SHT30;59417;44.788;10.334;2022-09-09T11:46:01;27.32;59.27
28175;SHT30;59417;44.788;10.334;2022-09-09T11:53:31;27.69;58.66
28175;SHT30;59417;44.788;10.334;2022-09-09T11:58:28;28.26;59.27
28175;SHT30;59417;44.788;10.334;2022-09-09T12:00:57;28.51;57.45
28175;SHT30;59417;44.788;10.334;2022-09-09T12:06:25;27.85;58.20
28175;SHT30;59417;44.788;10.334;2022-09-09T12:08:56;27.80;59.29
28175;SHT30;59417;44.788;10.334;2022-09-09T12:11:28;27.86;59.04
28175;SHT30;59417;44.788;10.334;2022-09-09T12:13:55;27.70;57.78
28175;SHT30;59417;44.788;10.334;2022-09-09T12:16:36;27.86;59.55
28175;SHT30;59417;44.788;10.334;2022-09-09T12:19:20;27.93;57.18
28175;SHT30;59417;44.788;10.334;2022-09-09T12:28:11;27.63;56.65
28175;SHT30;59417;44.788;10.334;2022-09-09T12:33:19;28.03;56.66
28175;SHT30;59417;44.788;10.334;2022-09-09T12:35:51;28.16;57.07
28175;SHT30;59417;44.788;10.334;2022-09-09T12:38:39;28.14;55.66
28175;SHT30;59417;44.788;10.334;2022-09-09T12:41:05;28.36;56.65
28175;SHT30;59417;44.788;10.334;2022-09-09T12:43:31;28.26;56.55
28175;SHT30;59417;44.788;10.334;2022-09-09T12:46:06;28.09;57.05
28175;SHT30;59417;44.788;10.334;2022-09-09T12:48:38;28.38;56.33
28175;SHT30;59417;44.788;10.334;2022-09-09T12:51:21;28.36;55.63
28175;SHT30;59417;44.788;10.334;2022-09-09T12:53:51;28.37;55.33
28175;SHT30;59417;44.788;10.334;2022-09-09T12:56:21;27.79;55.39
28175;SHT30;59417;44.788;10.334;2022-09-09T12:58:50;27.55;55.55
28175;SHT30;59417;44.788;10.334;2022-09-09T13:01:32;27.56;56.67
28175;SHT30;59417;44.788;10.334;2022-09-09T13:03:59;27.29;56.41
28175;SHT30;59417;44.788;10.334;2022-09-09T13:06:29;27.15;57.88
28175;SHT30;59417;44.788;10.334;2022-09-09T13:09:00;27.16;57.99
28175;SHT30;59417;44.788;10.334;2022-09-09T13:11:36;27.10;57.61
28175;SHT30;59417;44.788;10.334;2022-09-09T13:14:03;27.07;57.61
28175;SHT30;59417;44.788;10.334;2022-09-09T13:16:31;26.95;58.71
28175;SHT30;59417;44.788;10.334;2022-09-09T13:19:08;27.01;58.22
28175;SHT30;59417;44.788;10.334;2022-09-09T13:21:36;27.00;57.81
28175;SHT30;59417;44.788;10.334;2022-09-09T13:24:04;27.16;57.82
28175;SHT30;59417;44.788;10.334;2022-09-09T13:26:33;27.25;56.55
28175;SHT30;59417;44.788;10.334;2022-09-09T13:29:17;27.25;57.42
28175;SHT30;59417;44.788;10.334;2022-09-09T13:31:46;27.35;58.32
28175;SHT30;59417;44.788;10.334;2022-09-09T13:34:33;27.51;57.82
28175;SHT30;59417;44.788;10.334;2022-09-09T13:37:01;27.73;57.21
28175;SHT30;59417;44.788;10.334;2022-09-09T13:39:28;27.94;56.42
28175;SHT30;59417;44.788;10.334;2022-09-09T13:41:54;28.10;55.64
28175;SHT30;59417;44.788;10.334;2022-09-09T13:44:24;28.23;54.10
28175;SHT30;59417;44.788;10.334;2022-09-09T13:49:39;28.17;53.98
28175;SHT30;59417;44.788;10.334;2022-09-09T13:52:10;28.16;55.55
28175;SHT30;59417;44.788;10.334;2022-09-09T13:54:36;28.18;54.64
28175;SHT30;59417;44.788;10.334;2022-09-09T13:57:01;28.26;56.04
28175;SHT30;59417;44.788;10.334;2022-09-09T13:59:27;28.33;56.04
28175;SHT30;59417;44.788;10.334;2022-09-09T14:01:53;28.41;54.88
28175;SHT30;59417;44.788;10.334;2022-09-09T14:04:19;28.38;54.57
28175;SHT30;59417;44.788;10.334;2022-09-09T14:06:49;28.47;54.85
28175;SHT30;59417;44.788;10.334;2022-09-09T14:09:16;28.51;54.23
28175;SHT30;59417;44.788;10.334;2022-09-09T14:11:43;28.43;54.89
28175;SHT30;59417;44.788;10.334;2022-09-09T14:14:10;28.31;54.45
28175;SHT30;59417;44.788;10.334;2022-09-09T14:16:36;28.45;54.87
28175;SHT30;59417;44.788;10.334;2022-09-09T14:19:03;28.48;52.81
28175;SHT30;59417;44.788;10.334;2022-09-09T14:21:29;28.34;53.69
28175;SHT30;59417;44.788;10.334;2022-09-09T14:23:55;28.30;52.95
28175;SHT30;59417;44.788;10.334;2022-09-09T14:26:23;28.34;53.10
28175;SHT30;59417;44.788;10.334;2022-09-09T14:28:50;28.41;54.42
28175;SHT30;59417;44.788;10.334;2022-09-09T14:31:17;28.40;52.40
28175;SHT30;59417;44.788;10.334;2022-09-09T14:33:43;28.43;52.29
28175;SHT30;59417;44.788;10.334;2022-09-09T14:36:10;28.27;53.48
28175;SHT30;59417;44.788;10.334;2022-09-09T14:38:37;28.10;54.87
28175;SHT30;59417;44.788;10.334;2022-09-09T14:41:10;28.10;54.57
28175;SHT30;59417;44.788;10.334;2022-09-09T14:43:40;28.20;54.65
28175;SHT30;59417;44.788;10.334;2022-09-09T14:46:11;28.31;52.70
28175;SHT30;59417;44.788;10.334;2022-09-09T14:48:37;28.24;54.09
28175;SHT30;59417;44.788;10.334;2022-09-09T14:53:35;28.31;54.64
28175;SHT30;59417;44.788;10.334;2022-09-09T14:56:14;28.38;53.27
28175;SHT30;59417;44.788;10.334;2022-09-09T14:58:40;28.36;53.55
28175;SHT30;59417;44.788;10.334;2022-09-09T15:01:08;28.38;53.98
28175;SHT30;59417;44.788;10.334;2022-09-09T15:03:36;28.41;54.55
28175;SHT30;59417;44.788;10.334;2022-09-09T15:06:11;28.43;53.73
28175;SHT30;59417;44.788;10.334;2022-09-09T15:08:38;28.61;52.49
28175;SHT30;59417;44.788;10.334;2022-09-09T15:11:05;28.44;54.11
28175;SHT30;59417;44.788;10.334;2022-09-09T15:13:34;28.31;53.33
28175;SHT30;59417;44.788;10.334;2022-09-09T15:16:13;28.20;53.69
28175;SHT30;59417;44.788;10.334;2022-09-09T15:18:40;28.21;53.93
28175;SHT30;59417;44.788;10.334;2022-09-09T15:21:20;28.36;53.86
28175;SHT30;59417;44.788;10.334;2022-09-09T15:23:47;28.36;54.12
28175;SHT30;59417;44.788;10.334;2022-09-09T15:26:17;28.31;53.78
28175;SHT30;59417;44.788;10.334;2022-09-09T15:28:44;28.37;53.40
28175;SHT30;59417;44.788;10.334;2022-09-09T15:31:17;28.30;53.84
28175;SHT30;59417;44.788;10.334;2022-09-09T15:33:55;28.31;53.82
28175;SHT30;59417;44.788;10.334;2022-09-09T15:36:31;28.34;54.23
28175;SHT30;59417;44.788;10.334;2022-09-09T15:38:58;28.38;53.71
28175;SHT30;59417;44.788;10.334;2022-09-09T15:41:25;28.38;53.77
28175;SHT30;59417;44.788;10.334;2022-09-09T15:43:52;28.43;54.90
28175;SHT30;59417;44.788;10.334;2022-09-09T15:46:41;28.44;54.76
28175;SHT30;59417;44.788;10.334;2022-09-09T15:49:12;28.61;53.84
28175;SHT30;59417;44.788;10.334;2022-09-09T15:51:40;28.67;53.52
28175;SHT30;59417;44.788;10.334;2022-09-09T15:54:09;28.57;54.37
28175;SHT30;59417;44.788;10.334;2022-09-09T15:56:35;28.54;54.33
28175;SHT30;59417;44.788;10.334;2022-09-09T15:59:01;28.48;54.32
28175;SHT30;59417;44.788;10.334;2022-09-09T16:01:30;28.49;53.04
28175;SHT30;59417;44.788;10.334;2022-09-09T16:03:57;28.38;54.02
28175;SHT30;59417;44.788;10.334;2022-09-09T16:06:24;28.27;53.92
28175;SHT30;59417;44.788;10.334;2022-09-09T16:08:51;28.12;54.34
28175;SHT30;59417;44.788;10.334;2022-09-09T16:11:22;28.06;54.53
28175;SHT30;59417;44.788;10.334;2022-09-09T16:13:50;28.07;54.88
28175;SHT30;59417;44.788;10.334;2022-09-09T16:16:17;28.20;54.34
28175;SHT30;59417;44.788;10.334;2022-09-09T16:18:46;28.12;54.21
28175;SHT30;59417;44.788;10.334;2022-09-09T16:21:34;28.18;57.64
28175;SHT30;59417;44.788;10.334;2022-09-09T16:24:01;28.14;58.28
28175;SHT30;59417;44.788;10.334;2022-09-09T16:26:29;28.14;58.99
28175;SHT30;59417;44.788;10.334;2022-09-09T16:28:56;28.09;59.54
28175;SHT30;59417;44.788;10.334;2022-09-09T16:31:24;28.03;60.26
28175;SHT30;59417;44.788;10.334;2022-09-09T16:33:49;28.06;60.39
28175;SHT30;59417;44.788;10.334;2022-09-09T16:36:26;27.99;60.53
28175;SHT30;59417;44.788;10.334;2022-09-09T16:38:56;27.83;59.97
28175;SHT30;59417;44.788;10.334;2022-09-09T16:41:27;27.89;59.89
28175;SHT30;59417;44.788;10.334;2022-09-09T16:43:54;27.89;59.95
28175;SHT30;59417;44.788;10.334;2022-09-09T16:46:21;27.83;60.07
28175;SHT30;59417;44.788;10.334;2022-09-09T16:48:47;27.83;60.27
28175;SHT30;59417;44.788;10.334;2022-09-09T16:53:41;27.76;60.88
28175;SHT30;59417;44.788;10.334;2022-09-09T16:56:10;27.65;60.47
28175;SHT30;59417;44.788;10.334;2022-09-09T16:58:36;27.51;61.04
28175;SHT30;59417;44.788;10.334;2022-09-09T17:01:03;27.49;60.77
28175;SHT30;59417;44.788;10.334;2022-09-09T17:03:29;27.24;61.26
28175;SHT30;59417;44.788;10.334;2022-09-09T17:05:54;27.29;61.75
28175;SHT30;59417;44.788;10.334;2022-09-09T17:08:20;27.18;61.59
28175;SHT30;59417;44.788;10.334;2022-09-09T17:10:46;27.29;61.72
28175;SHT30;59417;44.788;10.334;2022-09-09T17:13:12;27.21;61.07
28175;SHT30;59417;44.788;10.334;2022-09-09T17:15:40;27.14;60.88
28175;SHT30;59417;44.788;10.334;2022-09-09T17:18:10;27.05;60.45
28175;SHT30;59417;44.788;10.334;2022-09-09T17:20:37;27.05;59.92
28175;SHT30;59417;44.788;10.334;2022-09-09T17:23:03;26.98;60.13
28175;SHT30;59417;44.788;10.334;2022-09-09T17:25:28;27.00;60.17
28175;SHT30;59417;44.788;10.334;2022-09-09T17:27:54;26.90;60.42
28175;SHT30;59417;44.788;10.334;2022-09-09T17:30:20;26.87;60.59
28175;SHT30;59417;44.788;10.334;2022-09-09T17:32:45;26.80;60.24
28175;SHT30;59417;44.788;10.334;2022-09-09T17:35:12;26.84;60.89
28175;SHT30;59417;44.788;10.334;2022-09-09T17:37:37;26.81;59.82
28175;SHT30;59417;44.788;10.334;2022-09-09T17:40:03;26.71;59.79
28175;SHT30;59417;44.788;10.334;2022-09-09T17:42:29;26.68;60.84
28175;SHT30;59417;44.788;10.334;2022-09-09T17:44:55;26.56;60.63
28175;SHT30;59417;44.788;10.334;2022-09-09T17:47:20;26.49;60.67
28175;SHT30;59417;44.788;10.334;2022-09-09T17:49:46;26.50;60.51
28175;SHT30;59417;44.788;10.334;2022-09-09T17:52:12;26.50;59.91
28175;SHT30;59417;44.788;10.334;2022-09-09T17:54:37;26.46;59.44
28175;SHT30;59417;44.788;10.334;2022-09-09T17:57:03;26.36;59.64
28175;SHT30;59417;44.788;10.334;2022-09-09T17:59:29;26.39;59.70
28175;SHT30;59417;44.788;10.334;2022-09-09T18:01:55;26.32;59.58
28175;SHT30;59417;44.788;10.334;2022-09-09T18:04:22;26.29;59.59